Pagina principale
METAR-TAF:

METAR-TAF

Aeroporti :

Aeroporto di Arad

Arad, Romania

latitudine: 46-12N, longitudine: 021-24E, altezza: 117 m

Osservazione

Il bollettino è stato emesso 41 minuti fa, alle 13:30 UTC
Vento 5 kt da nord, variando fra nord-ovest e nord/nord-est
Temperature 30°C
Umidità 35%
Pressione 1015 hPa
Visibilità 10 km o più
nessuna nube inferiore a 1500 m e nessun cumulonembo

METAR: LRAR 171330Z 35005KT 320V020 CAVOK 30/13 Q1015

Ora: 17:11 (14:11 UTC)

Previsione

Il bollettino è stato emesso 3 ore e 11 minuti fa, alle 11:00 UTC
Previsione valida dal 17 alle 12 UTC al 17 alle 21 UTC
Vento 6 kt da ovest/nord-ovest
Visibilità 10 km o più
nessuna nube inferiore a 1500 m e nessun cumulonembo

TAF: LRAR 171100Z 1712/1721 30006KT CAVOK

Osservazioni e previsioni meteorologiche di più di 4000 aeroporti (messaggi METAR e TAF).

Le stazioni disponibili sono rappresentate dai dischi gialli e rossi sulla carta.

Puntare il mouse per vedere il nome della stazione.

Clicca sopra per visualizzare le osservazioni e previsioni meteorologiche.

Per cambiare la mappa : fare clic sui pulsanti verdi con una croce nera per ingrandire, il pulsante verde con un trattino per diminuire, o sulla freccia verde per le mappe adiacenti.


METAR-TAF: